Aviation Digital Data Service (ADDS)

Output produced by METARs form (0017 UTC 29 June 2017)
found at http://aviationweather.gov/adds/metars/
 
KFAY 282329Z 2900/2924 VRB04KT P6SM FEW250 
     FM291500 15007KT P6SM SCT060